createdAt,value
2022-10-17T03:03:21.238Z,3.70
2022-10-17T03:05:48.981Z,3.00
2022-10-17T03:08:16.830Z,3.47
2022-10-17T03:10:44.257Z,3.35
2022-10-17T03:13:11.950Z,3.28
2022-10-17T03:15:39.581Z,3.25
2022-10-17T03:18:07.310Z,2.90
2022-10-17T03:20:35.023Z,3.13
2022-10-17T03:23:02.619Z,3.25
2022-10-17T03:25:30.403Z,3.40
2022-10-17T03:28:01.859Z,3.97
2022-10-17T03:30:29.975Z,4.15
2022-10-17T03:32:58.789Z,4.50
2022-10-17T03:35:26.978Z,4.53
2022-10-17T03:37:56.324Z,3.90
2022-10-17T03:40:24.172Z,4.30
2022-10-17T03:42:52.280Z,4.20
2022-10-17T03:45:19.629Z,4.68
2022-10-17T03:47:46.999Z,5.38
2022-10-17T03:50:14.744Z,4.55
2022-10-17T03:52:42.165Z,4.40
2022-10-17T03:55:09.520Z,3.50
2022-10-17T03:57:37.692Z,3.60
2022-10-17T04:00:07.132Z,4.25
2022-10-17T04:02:35.644Z,4.72
2022-10-17T04:05:03.193Z,4.53
2022-10-17T04:07:30.535Z,5.18
2022-10-17T04:09:58.022Z,4.57
2022-10-17T04:12:25.719Z,4.40
2022-10-17T04:14:53.390Z,3.05
2022-10-17T04:17:20.733Z,3.17
2022-10-17T04:19:49.772Z,3.30
2022-10-17T04:22:17.619Z,5.05
2022-10-17T04:24:45.149Z,4.82
2022-10-17T04:27:12.885Z,4.75
2022-10-17T04:29:40.446Z,4.72
2022-10-17T04:32:08.177Z,4.72
2022-10-17T04:34:35.540Z,4.90
2022-10-17T04:37:03.010Z,4.20
2022-10-17T04:39:32.143Z,5.72
2022-10-17T04:41:59.865Z,4.68
2022-10-17T04:44:30.814Z,3.97
2022-10-17T04:46:58.179Z,5.63
2022-10-17T04:49:25.554Z,4.50
2022-10-17T04:51:52.866Z,3.78
2022-10-17T04:54:20.236Z,3.60
2022-10-17T04:56:48.759Z,3.67
2022-10-17T04:59:17.198Z,3.90
2022-10-17T05:01:44.575Z,5.38
2022-10-17T05:04:12.100Z,4.70
2022-10-17T05:06:39.717Z,4.30
2022-10-17T05:09:07.042Z,7.25
2022-10-17T05:11:34.633Z,5.40
2022-10-17T05:14:02.718Z,4.68
2022-10-17T05:16:30.594Z,5.15
2022-10-17T05:18:58.769Z,6.07
2022-10-17T05:21:27.320Z,6.35
2022-10-17T05:23:54.893Z,5.85
2022-10-17T05:26:22.625Z,5.93
2022-10-17T05:28:50.130Z,5.32
2022-10-17T05:31:17.521Z,4.43
2022-10-17T05:33:44.965Z,4.00
2022-10-17T05:36:12.461Z,4.20
2022-10-17T05:38:40.005Z,3.30
2022-10-17T05:41:07.890Z,3.50
2022-10-17T05:43:35.658Z,4.30
2022-10-17T05:46:07.157Z,5.50
2022-10-17T05:48:34.848Z,4.88
2022-10-17T05:51:03.575Z,5.50
2022-10-17T05:53:32.196Z,4.88
2022-10-17T05:56:00.846Z,5.13
2022-10-17T05:59:00.898Z,5.60
2022-10-17T06:01:16.449Z,4.35
2022-10-17T06:03:43.919Z,4.53
2022-10-17T06:06:12.575Z,4.57
2022-10-17T06:08:40.431Z,3.72
2022-10-17T06:11:10.160Z,3.78
2022-10-17T06:13:38.368Z,3.92
2022-10-17T06:16:06.138Z,4.10
2022-10-17T06:18:33.937Z,4.28
2022-10-17T06:21:09.300Z,3.88
2022-10-17T06:23:36.863Z,4.70
2022-10-17T06:26:06.353Z,4.65
2022-10-17T06:28:34.283Z,3.88
2022-10-17T06:31:05.454Z,3.60
2022-10-17T06:33:33.174Z,3.50
2022-10-17T06:36:01.206Z,3.83
2022-10-17T06:38:28.951Z,3.30
2022-10-17T06:40:58.159Z,3.50
2022-10-17T06:43:28.017Z,3.97
2022-10-17T06:48:27.985Z,4.57
2022-10-17T06:50:55.609Z,5.40
2022-10-17T06:53:23.062Z,5.25
2022-10-17T06:55:55.414Z,4.57
2022-10-17T06:58:23.155Z,4.82
2022-10-17T07:00:50.748Z,4.32
2022-10-17T07:03:18.550Z,4.50
2022-10-17T07:05:52.567Z,3.75
2022-10-17T07:08:20.073Z,4.18
2022-10-17T07:10:47.697Z,3.80
2022-10-17T07:13:15.402Z,4.07
2022-10-17T07:15:43.068Z,4.35
2022-10-17T07:18:10.738Z,4.00
2022-10-17T07:20:38.344Z,4.22
2022-10-17T07:23:05.804Z,4.60
2022-10-17T07:25:36.378Z,4.85
2022-10-17T07:28:07.224Z,5.03
2022-10-17T07:30:34.977Z,4.20
2022-10-17T07:33:02.335Z,3.90
2022-10-17T07:35:29.918Z,3.60
2022-10-17T07:37:57.743Z,3.55
2022-10-17T07:40:25.129Z,3.15
2022-10-17T07:42:53.020Z,3.22
2022-10-17T07:45:20.455Z,3.25
2022-10-17T07:47:47.847Z,2.97
2022-10-17T07:50:15.611Z,3.88
2022-10-17T07:52:43.612Z,3.08
2022-10-17T07:55:11.105Z,3.90
2022-10-17T07:57:40.431Z,2.97
2022-10-17T08:00:08.697Z,3.20
2022-10-17T08:02:36.200Z,3.10
2022-10-17T08:05:03.672Z,2.90
2022-10-17T08:07:31.317Z,3.30
2022-10-17T08:09:58.989Z,3.25
2022-10-17T08:12:26.473Z,2.97
2022-10-17T08:14:53.876Z,2.85
2022-10-17T08:17:22.023Z,3.50
2022-10-17T08:19:49.521Z,2.90
2022-10-17T08:22:16.890Z,3.30
2022-10-17T08:24:45.875Z,3.75
2022-10-17T08:27:13.880Z,3.70
2022-10-17T08:29:41.649Z,3.80
2022-10-17T08:32:10.318Z,3.60
2022-10-17T08:34:38.225Z,3.47
2022-10-17T08:37:05.882Z,3.50
2022-10-17T08:39:33.409Z,3.08
2022-10-17T08:42:00.757Z,3.40
2022-10-17T08:44:31.439Z,3.08
2022-10-17T08:47:00.704Z,3.03
2022-10-17T08:49:35.176Z,3.03
2022-10-17T08:52:08.293Z,3.33
2022-10-17T08:54:41.220Z,2.65
2022-10-17T08:57:12.970Z,2.88
2022-10-17T08:59:40.508Z,3.33
2022-10-17T09:02:27.572Z,2.55
2022-10-17T09:05:02.058Z,2.65
2022-10-17T09:07:32.932Z,2.67
2022-10-17T09:10:03.626Z,2.80
2022-10-17T09:12:54.497Z,2.40
2022-10-17T09:15:32.674Z,2.72
2022-10-17T09:18:06.337Z,2.33
2022-10-17T09:20:48.459Z,2.47
2022-10-17T09:23:27.409Z,2.47
2022-10-17T09:25:56.325Z,2.53
2022-10-17T09:28:26.494Z,2.58
2022-10-17T09:30:53.857Z,1.95
2022-10-17T09:33:34.689Z,2.38
2022-10-17T09:36:18.314Z,2.05
2022-10-17T09:38:49.270Z,2.78
2022-10-17T09:44:23.977Z,2.55
2022-10-17T09:47:00.149Z,2.20
2022-10-17T09:49:32.771Z,2.40
2022-10-17T09:52:01.324Z,2.10
2022-10-17T09:54:34.813Z,2.22
2022-10-17T09:57:03.505Z,2.92
2022-10-17T09:59:34.696Z,2.70
2022-10-17T10:02:25.316Z,2.38
2022-10-17T10:05:06.353Z,2.83
2022-10-17T10:07:37.530Z,2.75
2022-10-17T10:10:06.488Z,3.50
2022-10-17T10:12:35.988Z,3.20
2022-10-17T10:15:03.926Z,4.10
2022-10-17T10:17:35.270Z,3.40
2022-10-17T10:20:03.410Z,3.08
2022-10-17T10:22:31.450Z,3.10
2022-10-17T10:25:11.739Z,2.90
2022-10-17T10:27:41.441Z,2.70
2022-10-17T10:30:17.731Z,3.08
2022-10-17T10:32:47.089Z,3.58
2022-10-17T10:35:22.002Z,3.05
2022-10-17T10:37:51.741Z,2.78
2022-10-17T10:40:25.369Z,3.42
2022-10-17T10:42:53.761Z,3.03
2022-10-17T10:48:24.623Z,3.55
2022-10-17T10:50:59.592Z,2.70
2022-10-17T10:53:48.299Z,2.95
2022-10-17T10:56:35.106Z,2.60
2022-10-17T10:59:08.495Z,2.83
2022-10-17T11:01:38.894Z,2.70
2022-10-17T11:04:15.589Z,2.85
2022-10-17T11:06:44.208Z,2.78
2022-10-17T11:09:24.486Z,3.30
2022-10-17T11:12:05.661Z,2.78
2022-10-17T11:14:42.568Z,2.83
2022-10-17T11:17:17.702Z,2.85
2022-10-17T11:19:45.133Z,2.35
2022-10-17T11:22:16.828Z,2.85
2022-10-17T11:25:04.385Z,2.72
2022-10-17T11:27:31.865Z,2.60
2022-10-17T11:29:59.370Z,2.53
2022-10-17T11:32:27.135Z,2.65
2022-10-17T11:34:58.365Z,2.90
2022-10-17T11:37:31.573Z,2.50
2022-10-17T11:40:00.920Z,2.45
2022-10-17T11:42:31.864Z,2.30
2022-10-17T11:45:06.754Z,2.58
2022-10-17T11:47:54.306Z,2.78
2022-10-17T11:53:18.197Z,2.20
2022-10-17T11:55:47.042Z,2.40
2022-10-17T11:58:14.776Z,2.47
2022-10-17T12:01:02.000Z,2.45
2022-10-17T12:03:29.729Z,2.97
2022-10-17T12:06:00.135Z,3.20
2022-10-17T12:08:43.078Z,2.38
2022-10-17T12:11:16.965Z,2.63
2022-10-17T12:13:48.224Z,2.85
2022-10-17T12:16:22.073Z,2.70
2022-10-17T12:19:10.032Z,2.30
2022-10-17T12:21:57.249Z,2.50
2022-10-17T12:24:30.635Z,2.25
2022-10-17T12:26:58.390Z,2.33
2022-10-17T12:29:30.685Z,2.03
2022-10-17T12:32:11.816Z,1.95
2022-10-17T12:34:39.730Z,2.17
2022-10-17T12:37:11.598Z,1.85
2022-10-17T12:39:38.953Z,1.98
2022-10-17T12:42:26.680Z,1.80
2022-10-17T12:44:54.213Z,2.20
2022-10-17T12:47:39.344Z,1.63
2022-10-17T12:50:27.016Z,2.00
2022-10-17T12:52:59.293Z,2.20
2022-10-17T12:55:26.967Z,2.30
2022-10-17T12:58:00.653Z,1.70
2022-10-17T13:00:49.661Z,2.33
2022-10-17T13:03:27.246Z,1.97
2022-10-17T13:05:56.738Z,1.80
2022-10-17T13:08:26.459Z,1.98
2022-10-17T13:10:54.797Z,1.75
2022-10-17T13:13:25.402Z,2.08
2022-10-17T13:15:55.971Z,1.80
2022-10-17T13:18:25.062Z,2.65
2022-10-17T13:21:03.470Z,2.38
2022-10-17T13:23:32.776Z,2.17
2022-10-17T13:26:15.518Z,2.10
2022-10-17T13:28:45.531Z,2.00
2022-10-17T13:31:45.651Z,2.17
2022-10-17T13:34:20.474Z,1.95
2022-10-17T13:36:49.753Z,1.98
2022-10-17T13:39:23.187Z,2.40
2022-10-17T13:41:59.985Z,1.77
2022-10-17T13:44:29.553Z,1.70
2022-10-17T13:46:57.319Z,1.75
2022-10-17T13:49:57.027Z,2.15
2022-10-17T13:52:26.322Z,2.03
2022-10-17T13:54:54.477Z,1.88
2022-10-17T13:57:26.160Z,1.75
2022-10-17T13:59:59.069Z,1.90
2022-10-17T14:02:28.215Z,2.05
2022-10-17T14:05:18.970Z,2.13
2022-10-17T14:08:11.201Z,2.20
2022-10-17T14:10:39.933Z,2.15
2022-10-17T14:13:08.419Z,1.92
2022-10-17T14:15:38.010Z,2.33
2022-10-17T14:18:07.935Z,2.35
2022-10-17T14:23:33.095Z,2.20
2022-10-17T14:26:12.728Z,2.50
2022-10-17T14:28:41.123Z,2.60
2022-10-17T14:31:14.385Z,2.33
2022-10-17T14:33:50.485Z,2.85
2022-10-17T14:36:19.090Z,2.15
2022-10-17T14:38:47.611Z,2.35
2022-10-17T14:41:41.400Z,2.40
2022-10-17T14:44:16.793Z,2.53
2022-10-17T14:46:50.283Z,2.95
2022-10-17T14:49:24.661Z,3.28
2022-10-17T14:54:30.425Z,3.42
2022-10-17T14:56:57.996Z,2.92
2022-10-17T14:59:52.354Z,2.72
2022-10-17T15:02:14.222Z,3.05
2022-10-17T15:04:41.957Z,2.90
2022-10-17T15:07:14.253Z,2.78
2022-10-17T15:09:42.242Z,2.83
2022-10-17T15:12:14.084Z,3.83
2022-10-17T15:14:41.854Z,2.75
2022-10-17T15:17:16.995Z,3.00
2022-10-17T15:19:44.554Z,2.80
2022-10-17T15:22:11.879Z,2.60
2022-10-17T15:24:39.434Z,2.35
2022-10-17T15:27:36.696Z,2.50
2022-10-17T15:30:04.705Z,2.58
2022-10-17T15:32:32.331Z,2.72
2022-10-17T15:34:59.735Z,2.83
2022-10-17T15:37:27.212Z,2.45
2022-10-17T15:39:55.461Z,3.20
2022-10-17T15:42:23.844Z,3.38
2022-10-17T15:44:51.619Z,3.28
2022-10-17T15:47:34.010Z,3.45
2022-10-17T15:50:02.584Z,3.15
2022-10-17T15:52:30.155Z,2.88
2022-10-17T15:54:59.716Z,4.07
2022-10-17T15:57:32.006Z,3.72
2022-10-17T16:00:00.537Z,3.65
2022-10-17T16:02:28.298Z,4.10
2022-10-17T16:04:55.791Z,3.67
2022-10-17T16:07:23.277Z,3.83
2022-10-17T16:09:50.812Z,3.15
2022-10-17T16:12:28.687Z,3.85
2022-10-17T16:14:57.122Z,4.15
2022-10-17T16:17:24.664Z,4.07
2022-10-17T16:19:52.445Z,4.22
2022-10-17T16:22:32.669Z,3.88
2022-10-17T16:25:07.909Z,3.90
2022-10-17T16:27:35.314Z,3.85
2022-10-17T16:30:03.350Z,4.18
2022-10-17T16:32:30.818Z,4.45
2022-10-17T16:35:00.063Z,4.50
2022-10-17T16:37:27.894Z,4.68
2022-10-17T16:39:55.381Z,4.38
2022-10-17T16:42:23.048Z,4.70
2022-10-17T16:44:51.601Z,5.47
2022-10-17T16:47:19.669Z,4.95
2022-10-17T16:49:47.319Z,4.53
2022-10-17T16:52:15.160Z,4.78
2022-10-17T16:54:42.479Z,4.55
2022-10-17T16:57:09.967Z,4.63
2022-10-17T16:59:37.501Z,4.55
2022-10-17T17:02:05.118Z,5.00
2022-10-17T17:04:32.803Z,4.93
2022-10-17T17:07:00.405Z,5.13
2022-10-17T17:09:27.779Z,5.55
2022-10-17T17:11:55.268Z,5.30
2022-10-17T17:14:23.115Z,5.28
2022-10-17T17:16:50.833Z,6.00
2022-10-17T17:19:18.375Z,5.72
2022-10-17T17:21:50.375Z,5.97
2022-10-17T17:24:18.479Z,6.90
2022-10-17T17:26:47.008Z,5.97
2022-10-17T17:29:14.523Z,5.72
2022-10-17T17:31:42.254Z,6.53
2022-10-17T17:34:11.101Z,6.28
2022-10-17T17:36:40.505Z,6.38
2022-10-17T17:39:09.682Z,5.28
2022-10-17T17:41:37.505Z,5.50
2022-10-17T17:44:05.091Z,6.60
2022-10-17T17:46:33.216Z,5.47
2022-10-17T17:49:00.973Z,5.70
2022-10-17T17:51:29.429Z,5.88
2022-10-17T17:53:57.019Z,6.40
2022-10-17T17:56:25.658Z,8.27
2022-10-17T17:58:57.647Z,8.82
2022-10-17T18:01:26.101Z,9.90
2022-10-17T18:03:54.520Z,8.88
2022-10-17T18:06:23.404Z,9.68
2022-10-17T18:08:52.410Z,11.07
2022-10-17T18:11:21.970Z,9.15
2022-10-17T18:13:54.600Z,8.95
2022-10-17T18:16:21.984Z,9.02
2022-10-17T18:18:49.751Z,8.45
2022-10-17T18:21:17.416Z,8.15
2022-10-17T18:23:46.464Z,8.27
2022-10-17T18:26:14.868Z,7.55
2022-10-17T18:28:43.261Z,7.55
2022-10-17T18:31:13.805Z,7.13
2022-10-17T18:33:41.236Z,6.90
2022-10-17T18:36:10.081Z,7.88
2022-10-17T18:38:37.585Z,9.98
2022-10-17T18:41:25.124Z,9.70
2022-10-17T18:43:53.331Z,11.43
2022-10-17T18:46:22.159Z,11.40
2022-10-17T18:48:50.045Z,10.95
2022-10-17T18:51:18.809Z,11.05
2022-10-17T18:53:47.768Z,9.60
2022-10-17T19:01:15.819Z,9.82
2022-10-17T19:11:11.119Z,7.32
2022-10-17T19:13:39.001Z,8.02
2022-10-17T19:16:10.611Z,6.55
2022-10-17T19:18:38.209Z,6.35
2022-10-17T19:21:07.104Z,6.55
2022-10-17T19:23:36.055Z,6.95
2022-10-17T19:26:05.695Z,8.02
2022-10-17T19:28:33.967Z,6.55
2022-10-17T19:31:01.339Z,7.00
2022-10-17T19:36:00.848Z,6.80
2022-10-17T19:38:28.331Z,7.00
2022-10-17T19:40:55.868Z,7.97
2022-10-17T19:43:23.777Z,8.07
2022-10-17T19:46:10.393Z,6.95
2022-10-17T19:48:39.079Z,7.22
2022-10-17T19:51:07.628Z,6.55
2022-10-17T19:53:35.657Z,6.65
2022-10-17T19:56:03.322Z,7.80
2022-10-17T19:58:31.042Z,7.60
2022-10-17T20:01:01.494Z,7.80
2022-10-17T20:03:29.686Z,7.78
2022-10-17T20:05:57.408Z,7.63
2022-10-17T20:10:57.455Z,7.53
2022-10-17T20:13:24.923Z,7.13
2022-10-17T20:15:56.159Z,7.03
2022-10-17T20:18:24.025Z,7.03
2022-10-17T20:20:51.498Z,7.25
2022-10-17T20:23:18.991Z,7.72
2022-10-17T20:25:50.468Z,7.65
2022-10-17T20:28:21.302Z,7.25
2022-10-17T20:30:48.755Z,6.72
2022-10-17T20:33:16.321Z,6.65
2022-10-17T20:38:12.929Z,6.82
2022-10-17T20:40:40.471Z,7.10
2022-10-17T20:43:08.677Z,6.68
2022-10-17T20:45:50.957Z,6.32
2022-10-17T20:48:19.672Z,6.18
2022-10-17T20:50:47.413Z,6.93
2022-10-17T20:53:36.013Z,6.25
2022-10-17T20:56:08.087Z,6.82
2022-10-17T20:58:35.763Z,6.40
2022-10-17T21:01:07.483Z,6.95
2022-10-17T21:03:43.976Z,6.78
2022-10-17T21:06:14.730Z,6.90
2022-10-17T21:08:42.080Z,5.53
2022-10-17T21:11:20.433Z,5.45
2022-10-17T21:13:48.370Z,5.78
2022-10-17T21:16:17.308Z,5.35
2022-10-17T21:18:44.806Z,6.35
2022-10-17T21:21:17.073Z,6.05
2022-10-17T21:23:45.988Z,5.28
2022-10-17T21:26:14.196Z,6.45
2022-10-17T21:28:42.474Z,7.60
2022-10-17T21:31:10.046Z,6.72
2022-10-17T21:33:37.805Z,6.95
2022-10-17T21:36:05.366Z,7.85
2022-10-17T21:38:33.243Z,6.68
2022-10-17T21:41:00.558Z,6.18
2022-10-17T21:43:28.299Z,7.45
2022-10-17T21:45:55.669Z,6.60
2022-10-17T21:48:23.138Z,6.88
2022-10-17T21:50:56.539Z,7.10
2022-10-17T21:53:24.036Z,7.43
2022-10-17T21:55:51.758Z,5.50
2022-10-17T21:58:19.225Z,6.40
2022-10-17T22:00:46.581Z,5.78
2022-10-17T22:03:15.303Z,6.40
2022-10-17T22:05:42.664Z,6.18
2022-10-17T22:08:10.395Z,5.82
2022-10-17T22:10:38.467Z,7.00
2022-10-17T22:13:05.922Z,7.05
2022-10-17T22:15:33.500Z,6.40
2022-10-17T22:18:01.203Z,5.95
2022-10-17T22:20:29.080Z,6.38
2022-10-17T22:22:56.549Z,5.97
2022-10-17T22:25:23.983Z,6.35
2022-10-17T22:27:51.743Z,6.60
